sensor_id;sensor_type;location;lat;lon;timestamp;pressure;altitude;pressure_sealevel;temperature;humidity
72465;BME280;60471;52.150;4.508;2023-07-16T00:01:00;100456.25;;;18.58;60.76
72465;BME280;60471;52.150;4.508;2023-07-16T00:03:26;100456.25;;;18.58;60.92
72465;BME280;60471;52.150;4.508;2023-07-16T00:05:52;100456.78;;;18.52;60.84
72465;BME280;60471;52.150;4.508;2023-07-16T00:08:18;100458.44;;;18.43;60.80
72465;BME280;60471;52.150;4.508;2023-07-16T00:10:44;100453.13;;;18.53;60.41
72465;BME280;60471;52.150;4.508;2023-07-16T00:13:10;100459.47;;;18.52;60.09
72465;BME280;60471;52.150;4.508;2023-07-16T00:15:36;100442.84;;;18.69;59.81
72465;BME280;60471;52.150;4.508;2023-07-16T00:18:02;100456.13;;;18.60;59.63
72465;BME280;60471;52.150;4.508;2023-07-16T00:20:29;100445.81;;;18.45;60.34
72465;BME280;60471;52.150;4.508;2023-07-16T00:22:55;100444.28;;;18.52;60.18
72465;BME280;60471;52.150;4.508;2023-07-16T00:25:22;100455.94;;;18.51;60.05
72465;BME280;60471;52.150;4.508;2023-07-16T00:27:48;100453.00;;;18.54;59.88
72465;BME280;60471;52.150;4.508;2023-07-16T00:30:14;100456.50;;;18.45;60.36
72465;BME280;60471;52.150;4.508;2023-07-16T00:32:40;100449.09;;;18.59;60.00
72465;BME280;60471;52.150;4.508;2023-07-16T00:35:07;100451.09;;;18.66;59.64
72465;BME280;60471;52.150;4.508;2023-07-16T00:37:33;100447.84;;;18.63;60.20
72465;BME280;60471;52.150;4.508;2023-07-16T00:40:00;100443.28;;;18.53;59.90
72465;BME280;60471;52.150;4.508;2023-07-16T00:42:26;100434.97;;;18.47;60.19
72465;BME280;60471;52.150;4.508;2023-07-16T00:44:52;100459.47;;;18.52;60.07
72465;BME280;60471;52.150;4.508;2023-07-16T00:47:18;100452.25;;;18.43;60.59
72465;BME280;60471;52.150;4.508;2023-07-16T00:49:45;100451.94;;;18.36;60.71
72465;BME280;60471;52.150;4.508;2023-07-16T00:52:13;100462.78;;;18.35;60.91
72465;BME280;60471;52.150;4.508;2023-07-16T00:54:43;100454.16;;;18.62;60.17
72465;BME280;60471;52.150;4.508;2023-07-16T00:57:10;100471.53;;;18.67;59.94
72465;BME280;60471;52.150;4.508;2023-07-16T00:59:36;100470.13;;;18.73;60.07
72465;BME280;60471;52.150;4.508;2023-07-16T01:02:02;100467.34;;;18.53;60.42
72465;BME280;60471;52.150;4.508;2023-07-16T01:04:28;100459.91;;;18.57;60.48
72465;BME280;60471;52.150;4.508;2023-07-16T01:06:55;100475.75;;;18.49;60.58
72465;BME280;60471;52.150;4.508;2023-07-16T01:09:26;100460.13;;;18.44;61.17
72465;BME280;60471;52.150;4.508;2023-07-16T01:11:54;100452.78;;;18.37;61.28
72465;BME280;60471;52.150;4.508;2023-07-16T01:14:22;100455.56;;;18.56;60.98
72465;BME280;60471;52.150;4.508;2023-07-16T01:16:48;100453.72;;;18.57;60.90
72465;BME280;60471;52.150;4.508;2023-07-16T01:19:15;100461.56;;;18.48;61.10
72465;BME280;60471;52.150;4.508;2023-07-16T01:30:04;100461.50;;;18.39;61.93
72465;BME280;60471;52.150;4.508;2023-07-16T01:32:34;100459.34;;;18.33;62.20
72465;BME280;60471;52.150;4.508;2023-07-16T01:35:03;100459.28;;;18.44;62.09
72465;BME280;60471;52.150;4.508;2023-07-16T01:37:31;100470.31;;;18.30;62.49
72465;BME280;60471;52.150;4.508;2023-07-16T01:39:58;100460.34;;;18.32;62.80
72465;BME280;60471;52.150;4.508;2023-07-16T01:42:24;100455.97;;;18.31;62.79
72465;BME280;60471;52.150;4.508;2023-07-16T01:44:50;100462.03;;;18.33;62.62
72465;BME280;60471;52.150;4.508;2023-07-16T01:50:17;100460.41;;;18.20;62.73
72465;BME280;60471;52.150;4.508;2023-07-16T01:52:43;100448.44;;;18.36;62.50
72465;BME280;60471;52.150;4.508;2023-07-16T01:55:09;100462.44;;;18.28;62.61
72465;BME280;60471;52.150;4.508;2023-07-16T01:57:35;100478.06;;;18.33;62.67
72465;BME280;60471;52.150;4.508;2023-07-16T02:00:01;100465.16;;;18.38;62.15
72465;BME280;60471;52.150;4.508;2023-07-16T02:02:28;100454.22;;;18.41;62.27
72465;BME280;60471;52.150;4.508;2023-07-16T02:04:54;100472.84;;;18.31;62.33
72465;BME280;60471;52.150;4.508;2023-07-16T02:07:20;100462.50;;;18.38;62.13
72465;BME280;60471;52.150;4.508;2023-07-16T02:09:46;100454.16;;;18.31;62.06
72465;BME280;60471;52.150;4.508;2023-07-16T02:12:12;100468.09;;;18.35;62.13
72465;BME280;60471;52.150;4.508;2023-07-16T02:14:38;100481.31;;;18.36;62.06
72465;BME280;60471;52.150;4.508;2023-07-16T02:17:04;100444.94;;;18.45;62.06
72465;BME280;60471;52.150;4.508;2023-07-16T02:19:30;100448.78;;;18.52;61.83
72465;BME280;60471;52.150;4.508;2023-07-16T02:21:56;100462.34;;;18.39;61.98
72465;BME280;60471;52.150;4.508;2023-07-16T02:24:22;100458.34;;;18.24;62.23
72465;BME280;60471;52.150;4.508;2023-07-16T02:26:49;100469.47;;;18.29;62.06
72465;BME280;60471;52.150;4.508;2023-07-16T02:29:15;100446.69;;;18.25;62.35
72465;BME280;60471;52.150;4.508;2023-07-16T02:31:41;100466.22;;;18.25;62.06
72465;BME280;60471;52.150;4.508;2023-07-16T02:34:09;100467.59;;;18.20;62.27
72465;BME280;60471;52.150;4.508;2023-07-16T02:36:35;100467.69;;;18.39;62.12
72465;BME280;60471;52.150;4.508;2023-07-16T02:39:01;100479.88;;;18.32;62.11
72465;BME280;60471;52.150;4.508;2023-07-16T02:41:27;100480.72;;;18.33;62.18
72465;BME280;60471;52.150;4.508;2023-07-16T02:44:00;100476.84;;;18.37;62.11
72465;BME280;60471;52.150;4.508;2023-07-16T02:46:27;100456.88;;;18.41;61.74
72465;BME280;60471;52.150;4.508;2023-07-16T02:48:53;100469.53;;;18.39;62.15
72465;BME280;60471;52.150;4.508;2023-07-16T02:51:19;100462.00;;;18.53;61.93
72465;BME280;60471;52.150;4.508;2023-07-16T02:53:45;100484.16;;;18.44;61.88
72465;BME280;60471;52.150;4.508;2023-07-16T02:56:11;100468.91;;;18.56;62.13
72465;BME280;60471;52.150;4.508;2023-07-16T02:58:37;100474.91;;;18.48;62.52
72465;BME280;60471;52.150;4.508;2023-07-16T03:01:03;100495.75;;;18.54;62.37
72465;BME280;60471;52.150;4.508;2023-07-16T03:03:29;100477.59;;;18.48;62.83
72465;BME280;60471;52.150;4.508;2023-07-16T03:05:55;100464.38;;;18.47;63.25
72465;BME280;60471;52.150;4.508;2023-07-16T03:08:21;100491.03;;;18.37;63.16
72465;BME280;60471;52.150;4.508;2023-07-16T03:10:48;100483.25;;;18.34;63.19
72465;BME280;60471;52.150;4.508;2023-07-16T03:13:14;100537.94;;;18.30;63.04
72465;BME280;60471;52.150;4.508;2023-07-16T03:15:40;100493.00;;;18.35;62.77
72465;BME280;60471;52.150;4.508;2023-07-16T03:18:06;100510.50;;;18.49;62.85
72465;BME280;60471;52.150;4.508;2023-07-16T03:20:32;100506.09;;;18.38;63.29
72465;BME280;60471;52.150;4.508;2023-07-16T03:22:58;100500.53;;;18.30;63.61
72465;BME280;60471;52.150;4.508;2023-07-16T03:25:24;100537.16;;;18.18;64.03
72465;BME280;60471;52.150;4.508;2023-07-16T03:27:50;100480.50;;;18.36;63.50
72465;BME280;60471;52.150;4.508;2023-07-16T03:30:16;100551.50;;;18.38;63.71
72465;BME280;60471;52.150;4.508;2023-07-16T03:32:42;100540.22;;;18.35;63.60
72465;BME280;60471;52.150;4.508;2023-07-16T03:35:08;100523.41;;;18.23;64.30
72465;BME280;60471;52.150;4.508;2023-07-16T03:37:34;100526.53;;;18.07;65.86
72465;BME280;60471;52.150;4.508;2023-07-16T03:40:12;100522.16;;;17.85;66.79
72465;BME280;60471;52.150;4.508;2023-07-16T03:42:41;100543.38;;;17.87;67.08
72465;BME280;60471;52.150;4.508;2023-07-16T03:45:09;100522.63;;;17.79;68.00
72465;BME280;60471;52.150;4.508;2023-07-16T03:47:36;100541.84;;;17.73;68.66
72465;BME280;60471;52.150;4.508;2023-07-16T03:50:02;100523.88;;;17.64;69.20
72465;BME280;60471;52.150;4.508;2023-07-16T03:52:28;100529.38;;;17.51;69.55
72465;BME280;60471;52.150;4.508;2023-07-16T03:54:55;100537.94;;;17.66;68.86
72465;BME280;60471;52.150;4.508;2023-07-16T03:57:20;100544.25;;;17.76;69.28
72465;BME280;60471;52.150;4.508;2023-07-16T03:59:46;100543.06;;;17.58;69.37
72465;BME280;60471;52.150;4.508;2023-07-16T04:02:12;100553.63;;;17.59;69.71
72465;BME280;60471;52.150;4.508;2023-07-16T04:04:38;100560.44;;;17.52;70.36
72465;BME280;60471;52.150;4.508;2023-07-16T04:07:05;100536.91;;;17.46;70.50
72465;BME280;60471;52.150;4.508;2023-07-16T04:09:31;100543.28;;;17.66;70.15
72465;BME280;60471;52.150;4.508;2023-07-16T04:11:57;100551.28;;;17.77;69.97
72465;BME280;60471;52.150;4.508;2023-07-16T04:14:23;100539.03;;;17.75;69.69
72465;BME280;60471;52.150;4.508;2023-07-16T04:16:49;100562.81;;;17.78;69.34
72465;BME280;60471;52.150;4.508;2023-07-16T04:19:15;100543.84;;;17.92;68.80
72465;BME280;60471;52.150;4.508;2023-07-16T04:21:41;100561.34;;;17.85;68.38
72465;BME280;60471;52.150;4.508;2023-07-16T04:24:07;100587.53;;;17.80;68.19
72465;BME280;60471;52.150;4.508;2023-07-16T04:26:33;100556.84;;;17.85;67.85
72465;BME280;60471;52.150;4.508;2023-07-16T04:28:59;100544.94;;;17.89;67.49
72465;BME280;60471;52.150;4.508;2023-07-16T04:31:25;100576.25;;;17.87;67.52
72465;BME280;60471;52.150;4.508;2023-07-16T04:33:51;100575.63;;;17.95;67.20
72465;BME280;60471;52.150;4.508;2023-07-16T04:36:17;100565.16;;;18.03;66.74
72465;BME280;60471;52.150;4.508;2023-07-16T04:38:43;100589.09;;;17.93;66.78
72465;BME280;60471;52.150;4.508;2023-07-16T04:41:09;100586.50;;;18.03;66.33
72465;BME280;60471;52.150;4.508;2023-07-16T04:43:35;100582.19;;;17.91;67.36
72465;BME280;60471;52.150;4.508;2023-07-16T04:46:01;100598.47;;;17.77;68.02
72465;BME280;60471;52.150;4.508;2023-07-16T04:48:27;100579.63;;;17.89;67.33
72465;BME280;60471;52.150;4.508;2023-07-16T04:50:53;100607.31;;;17.88;67.55
72465;BME280;60471;52.150;4.508;2023-07-16T04:53:19;100587.72;;;17.99;67.43
72465;BME280;60471;52.150;4.508;2023-07-16T04:55:45;100610.69;;;17.90;67.21
72465;BME280;60471;52.150;4.508;2023-07-16T04:58:11;100580.66;;;18.09;66.53
72465;BME280;60471;52.150;4.508;2023-07-16T05:00:38;100591.94;;;18.13;66.00
72465;BME280;60471;52.150;4.508;2023-07-16T05:03:04;100593.72;;;18.23;64.96
72465;BME280;60471;52.150;4.508;2023-07-16T05:05:30;100636.56;;;18.22;63.95
72465;BME280;60471;52.150;4.508;2023-07-16T05:07:56;100633.50;;;18.27;63.70
72465;BME280;60471;52.150;4.508;2023-07-16T05:10:22;100585.44;;;18.27;63.56
72465;BME280;60471;52.150;4.508;2023-07-16T05:12:49;100613.97;;;18.26;62.64
72465;BME280;60471;52.150;4.508;2023-07-16T05:15:15;100614.56;;;18.30;62.25
72465;BME280;60471;52.150;4.508;2023-07-16T05:17:41;100581.00;;;18.37;62.07
72465;BME280;60471;52.150;4.508;2023-07-16T05:20:07;100597.75;;;18.60;61.42
72465;BME280;60471;52.150;4.508;2023-07-16T05:22:35;100623.94;;;18.45;61.90
72465;BME280;60471;52.150;4.508;2023-07-16T05:25:01;100623.91;;;18.35;61.47
72465;BME280;60471;52.150;4.508;2023-07-16T05:27:28;100601.47;;;18.47;61.33
72465;BME280;60471;52.150;4.508;2023-07-16T05:29:54;100655.41;;;18.41;61.46
72465;BME280;60471;52.150;4.508;2023-07-16T05:32:21;100652.22;;;18.27;61.53
72465;BME280;60471;52.150;4.508;2023-07-16T05:34:47;100625.06;;;18.42;61.60
72465;BME280;60471;52.150;4.508;2023-07-16T05:37:13;100606.16;;;18.55;61.16
72465;BME280;60471;52.150;4.508;2023-07-16T05:39:39;100637.81;;;18.39;61.80
72465;BME280;60471;52.150;4.508;2023-07-16T05:42:05;100639.19;;;18.54;61.53
72465;BME280;60471;52.150;4.508;2023-07-16T05:44:31;100675.50;;;18.68;61.67
72465;BME280;60471;52.150;4.508;2023-07-16T05:46:57;100619.53;;;18.76;62.05
72465;BME280;60471;52.150;4.508;2023-07-16T05:49:24;100617.47;;;19.00;61.32
72465;BME280;60471;52.150;4.508;2023-07-16T05:51:52;100629.56;;;18.63;62.60
72465;BME280;60471;52.150;4.508;2023-07-16T05:54:19;100650.16;;;18.51;62.80
72465;BME280;60471;52.150;4.508;2023-07-16T05:56:45;100684.22;;;18.38;63.85
72465;BME280;60471;52.150;4.508;2023-07-16T05:59:11;100625.84;;;18.54;63.21
72465;BME280;60471;52.150;4.508;2023-07-16T06:01:38;100646.56;;;18.73;63.09
72465;BME280;60471;52.150;4.508;2023-07-16T06:04:04;100650.28;;;18.81;63.19
72465;BME280;60471;52.150;4.508;2023-07-16T06:06:30;100638.03;;;18.79;62.66
72465;BME280;60471;52.150;4.508;2023-07-16T06:08:56;100646.34;;;18.86;62.72
72465;BME280;60471;52.150;4.508;2023-07-16T06:11:22;100630.31;;;18.86;62.51
72465;BME280;60471;52.150;4.508;2023-07-16T06:13:48;100658.78;;;18.75;62.43
72465;BME280;60471;52.150;4.508;2023-07-16T06:16:14;100677.19;;;18.69;61.87
72465;BME280;60471;52.150;4.508;2023-07-16T06:18:40;100663.78;;;18.80;61.56
72465;BME280;60471;52.150;4.508;2023-07-16T06:21:06;100698.84;;;18.87;60.71
72465;BME280;60471;52.150;4.508;2023-07-16T06:23:32;100689.31;;;18.94;60.69
72465;BME280;60471;52.150;4.508;2023-07-16T06:25:58;100685.16;;;19.01;60.00
72465;BME280;60471;52.150;4.508;2023-07-16T06:28:24;100645.63;;;18.83;59.80
72465;BME280;60471;52.150;4.508;2023-07-16T06:30:50;100685.41;;;18.98;59.79
72465;BME280;60471;52.150;4.508;2023-07-16T06:33:19;100663.03;;;18.99;59.59
72465;BME280;60471;52.150;4.508;2023-07-16T06:35:46;100705.38;;;18.94;59.67
72465;BME280;60471;52.150;4.508;2023-07-16T06:38:13;100682.59;;;18.99;60.38
72465;BME280;60471;52.150;4.508;2023-07-16T06:40:45;100654.69;;;19.13;60.31
72465;BME280;60471;52.150;4.508;2023-07-16T06:43:12;100666.22;;;19.14;60.51
72465;BME280;60471;52.150;4.508;2023-07-16T06:45:38;100743.31;;;18.88;61.30
72465;BME280;60471;52.150;4.508;2023-07-16T06:48:04;100667.66;;;18.97;61.63
72465;BME280;60471;52.150;4.508;2023-07-16T06:50:31;100728.50;;;18.83;61.72
72465;BME280;60471;52.150;4.508;2023-07-16T06:52:57;100703.69;;;18.93;61.81
72465;BME280;60471;52.150;4.508;2023-07-16T06:55:23;100691.50;;;19.30;61.61
72465;BME280;60471;52.150;4.508;2023-07-16T06:57:49;100748.16;;;19.35;61.16
72465;BME280;60471;52.150;4.508;2023-07-16T07:00:15;100705.81;;;19.20;61.60
72465;BME280;60471;52.150;4.508;2023-07-16T07:02:41;100719.78;;;19.23;62.15
72465;BME280;60471;52.150;4.508;2023-07-16T07:05:07;100695.22;;;19.39;61.53
72465;BME280;60471;52.150;4.508;2023-07-16T07:07:33;100723.38;;;19.13;62.04
72465;BME280;60471;52.150;4.508;2023-07-16T07:10:00;100709.22;;;19.01;61.84
72465;BME280;60471;52.150;4.508;2023-07-16T07:12:26;100710.28;;;18.89;62.16
72465;BME280;60471;52.150;4.508;2023-07-16T07:14:55;100710.50;;;19.06;61.54
72465;BME280;60471;52.150;4.508;2023-07-16T07:17:21;100752.53;;;19.16;61.76
72465;BME280;60471;52.150;4.508;2023-07-16T07:19:47;100774.25;;;19.01;61.90
72465;BME280;60471;52.150;4.508;2023-07-16T07:22:13;100706.56;;;19.31;60.74
72465;BME280;60471;52.150;4.508;2023-07-16T07:24:39;100767.09;;;19.53;60.70
72465;BME280;60471;52.150;4.508;2023-07-16T07:27:05;100714.88;;;19.28;60.37
72465;BME280;60471;52.150;4.508;2023-07-16T07:29:31;100794.28;;;19.28;60.79
72465;BME280;60471;52.150;4.508;2023-07-16T07:31:57;100740.00;;;19.37;60.89
72465;BME280;60471;52.150;4.508;2023-07-16T07:34:23;100730.06;;;19.28;60.59
72465;BME280;60471;52.150;4.508;2023-07-16T07:36:49;100769.50;;;19.26;60.71
72465;BME280;60471;52.150;4.508;2023-07-16T07:39:15;100746.53;;;19.44;60.64
72465;BME280;60471;52.150;4.508;2023-07-16T07:41:42;100742.16;;;19.53;60.70
72465;BME280;60471;52.150;4.508;2023-07-16T07:44:08;100755.53;;;19.43;60.10
72465;BME280;60471;52.150;4.508;2023-07-16T07:46:34;100786.59;;;19.34;60.90
72465;BME280;60471;52.150;4.508;2023-07-16T07:49:00;100815.25;;;19.23;60.77
72465;BME280;60471;52.150;4.508;2023-07-16T07:51:26;100781.44;;;19.22;60.92
72465;BME280;60471;52.150;4.508;2023-07-16T07:53:52;100744.63;;;19.56;60.71
72465;BME280;60471;52.150;4.508;2023-07-16T07:56:18;100770.56;;;19.55;60.73
72465;BME280;60471;52.150;4.508;2023-07-16T07:58:44;100735.25;;;19.71;60.62
72465;BME280;60471;52.150;4.508;2023-07-16T08:01:10;100779.72;;;19.62;60.70
72465;BME280;60471;52.150;4.508;2023-07-16T08:03:36;100740.41;;;19.63;60.69
72465;BME280;60471;52.150;4.508;2023-07-16T08:06:03;100785.88;;;19.32;61.05
72465;BME280;60471;52.150;4.508;2023-07-16T08:08:29;100803.16;;;19.28;61.48
72465;BME280;60471;52.150;4.508;2023-07-16T08:10:55;100776.66;;;19.46;61.41
72465;BME280;60471;52.150;4.508;2023-07-16T08:13:21;100813.75;;;19.72;60.41
72465;BME280;60471;52.150;4.508;2023-07-16T08:15:47;100810.47;;;19.89;59.69
72465;BME280;60471;52.150;4.508;2023-07-16T08:18:15;100770.09;;;20.21;58.77
72465;BME280;60471;52.150;4.508;2023-07-16T08:20:41;100771.78;;;19.82;60.18
72465;BME280;60471;52.150;4.508;2023-07-16T08:23:07;100805.41;;;19.65;60.75
72465;BME280;60471;52.150;4.508;2023-07-16T08:25:34;100808.19;;;19.42;62.08
72465;BME280;60471;52.150;4.508;2023-07-16T08:28:02;100895.63;;;19.42;60.91
72465;BME280;60471;52.150;4.508;2023-07-16T08:30:28;100779.41;;;19.77;59.62
72465;BME280;60471;52.150;4.508;2023-07-16T08:32:54;100818.53;;;19.68;59.36
72465;BME280;60471;52.150;4.508;2023-07-16T08:35:20;100785.69;;;19.66;59.32
72465;BME280;60471;52.150;4.508;2023-07-16T08:37:46;100814.66;;;19.61;60.13
72465;BME280;60471;52.150;4.508;2023-07-16T08:40:12;100818.38;;;19.49;60.64
72465;BME280;60471;52.150;4.508;2023-07-16T08:42:39;100800.78;;;19.97;60.12
72465;BME280;60471;52.150;4.508;2023-07-16T08:45:11;100796.69;;;20.03;59.53
72465;BME280;60471;52.150;4.508;2023-07-16T08:47:38;100787.63;;;19.94;59.95
72465;BME280;60471;52.150;4.508;2023-07-16T08:50:04;100787.56;;;19.54;60.45
72465;BME280;60471;52.150;4.508;2023-07-16T08:52:31;100839.41;;;19.74;60.71
72465;BME280;60471;52.150;4.508;2023-07-16T08:54:57;100808.47;;;19.91;60.67
72465;BME280;60471;52.150;4.508;2023-07-16T08:57:23;100835.25;;;19.91;59.91
72465;BME280;60471;52.150;4.508;2023-07-16T08:59:49;100829.50;;;19.65;60.99
72465;BME280;60471;52.150;4.508;2023-07-16T09:02:16;100818.25;;;19.71;60.58
72465;BME280;60471;52.150;4.508;2023-07-16T09:04:45;100850.94;;;19.75;60.78
72465;BME280;60471;52.150;4.508;2023-07-16T09:07:13;100813.13;;;20.19;59.89
72465;BME280;60471;52.150;4.508;2023-07-16T09:09:39;100839.34;;;20.25;58.29
72465;BME280;60471;52.150;4.508;2023-07-16T09:12:05;100839.94;;;20.89;57.35
72465;BME280;60471;52.150;4.508;2023-07-16T09:14:32;100815.13;;;20.87;57.15
72465;BME280;60471;52.150;4.508;2023-07-16T09:16:58;100812.81;;;20.53;55.85
72465;BME280;60471;52.150;4.508;2023-07-16T09:19:25;100795.53;;;20.36;56.91
72465;BME280;60471;52.150;4.508;2023-07-16T09:21:51;100806.31;;;20.15;56.83
72465;BME280;60471;52.150;4.508;2023-07-16T09:24:18;100826.00;;;20.35;56.26
72465;BME280;60471;52.150;4.508;2023-07-16T09:26:54;100836.09;;;20.22;57.21
72465;BME280;60471;52.150;4.508;2023-07-16T09:29:26;100866.06;;;20.37;56.42
72465;BME280;60471;52.150;4.508;2023-07-16T09:31:55;100819.03;;;20.63;56.05
72465;BME280;60471;52.150;4.508;2023-07-16T09:34:23;100822.78;;;20.41;57.48
72465;BME280;60471;52.150;4.508;2023-07-16T09:36:52;100869.97;;;20.73;56.80
72465;BME280;60471;52.150;4.508;2023-07-16T09:39:18;100846.59;;;20.35;57.59
72465;BME280;60471;52.150;4.508;2023-07-16T09:41:48;100875.28;;;20.13;58.23
72465;BME280;60471;52.150;4.508;2023-07-16T09:44:15;100839.59;;;19.82;58.14
72465;BME280;60471;52.150;4.508;2023-07-16T09:46:42;100851.16;;;19.83;58.04
72465;BME280;60471;52.150;4.508;2023-07-16T09:49:09;100904.97;;;19.80;57.82
72465;BME280;60471;52.150;4.508;2023-07-16T09:51:36;100887.00;;;19.71;58.38
72465;BME280;60471;52.150;4.508;2023-07-16T09:54:04;100880.28;;;19.76;58.75
72465;BME280;60471;52.150;4.508;2023-07-16T09:56:32;100923.94;;;20.18;58.25
72465;BME280;60471;52.150;4.508;2023-07-16T09:59:02;100875.00;;;20.47;57.79
72465;BME280;60471;52.150;4.508;2023-07-16T10:01:36;100887.69;;;20.45;58.38
72465;BME280;60471;52.150;4.508;2023-07-16T10:04:14;100885.13;;;20.74;56.98
72465;BME280;60471;52.150;4.508;2023-07-16T10:06:59;100911.66;;;20.77;56.74
72465;BME280;60471;52.150;4.508;2023-07-16T10:09:34;100864.66;;;20.92;56.68
72465;BME280;60471;52.150;4.508;2023-07-16T10:12:23;100870.91;;;21.22;55.61
72465;BME280;60471;52.150;4.508;2023-07-16T10:14:53;100881.59;;;20.73;55.82
72465;BME280;60471;52.150;4.508;2023-07-16T10:17:24;100887.38;;;20.88;55.75
72465;BME280;60471;52.150;4.508;2023-07-16T10:22:42;100997.50;;;20.35;53.36
72465;BME280;60471;52.150;4.508;2023-07-16T10:27:43;100962.91;;;20.22;51.62
72465;BME280;60471;52.150;4.508;2023-07-16T10:30:11;100908.38;;;20.64;51.37
72465;BME280;60471;52.150;4.508;2023-07-16T10:32:37;100929.59;;;20.86;50.21
72465;BME280;60471;52.150;4.508;2023-07-16T10:35:04;100904.50;;;21.06;50.07
72465;BME280;60471;52.150;4.508;2023-07-16T10:37:31;100913.09;;;21.00;48.72
72465;BME280;60471;52.150;4.508;2023-07-16T10:39:58;100952.47;;;20.90;48.68
72465;BME280;60471;52.150;4.508;2023-07-16T10:42:26;100935.97;;;21.04;49.55
72465;BME280;60471;52.150;4.508;2023-07-16T10:44:53;100908.91;;;21.36;47.91
72465;BME280;60471;52.150;4.508;2023-07-16T10:47:24;100920.06;;;21.22;48.06
72465;BME280;60471;52.150;4.508;2023-07-16T10:49:55;100938.94;;;21.01;47.53
72465;BME280;60471;52.150;4.508;2023-07-16T10:52:22;100928.50;;;20.98;46.82
72465;BME280;60471;52.150;4.508;2023-07-16T10:54:49;100897.19;;;21.66;46.04
72465;BME280;60471;52.150;4.508;2023-07-16T10:57:20;100911.19;;;21.51;46.73
72465;BME280;60471;52.150;4.508;2023-07-16T10:59:54;100957.53;;;21.33;45.50
72465;BME280;60471;52.150;4.508;2023-07-16T11:02:22;100973.09;;;21.49;46.36
72465;BME280;60471;52.150;4.508;2023-07-16T11:04:49;100968.06;;;21.25;46.69
72465;BME280;60471;52.150;4.508;2023-07-16T11:07:19;100944.41;;;21.50;47.83
72465;BME280;60471;52.150;4.508;2023-07-16T11:09:49;101000.03;;;23.09;44.36
72465;BME280;60471;52.150;4.508;2023-07-16T11:12:17;100944.38;;;23.45;42.98
72465;BME280;60471;52.150;4.508;2023-07-16T11:14:46;100931.03;;;22.25;46.52
72465;BME280;60471;52.150;4.508;2023-07-16T11:17:14;100933.38;;;21.53;47.49
72465;BME280;60471;52.150;4.508;2023-07-16T11:19:41;100968.47;;;22.74;44.98
72465;BME280;60471;52.150;4.508;2023-07-16T11:22:10;100975.81;;;23.72;43.19
72465;BME280;60471;52.150;4.508;2023-07-16T11:24:37;100958.19;;;24.90;38.88
72465;BME280;60471;52.150;4.508;2023-07-16T11:27:05;100915.06;;;25.14;38.79
72465;BME280;60471;52.150;4.508;2023-07-16T11:29:38;100955.66;;;26.12;36.46
72465;BME280;60471;52.150;4.508;2023-07-16T11:32:04;100986.88;;;25.49;36.53
72465;BME280;60471;52.150;4.508;2023-07-16T11:34:31;101049.84;;;24.73;35.84
72465;BME280;60471;52.150;4.508;2023-07-16T11:40:03;101124.97;;;23.43;37.96
72465;BME280;60471;52.150;4.508;2023-07-16T11:42:31;100985.94;;;24.40;36.94
72465;BME280;60471;52.150;4.508;2023-07-16T11:44:59;100970.41;;;24.34;36.75
72465;BME280;60471;52.150;4.508;2023-07-16T11:47:26;101014.41;;;23.98;37.41
72465;BME280;60471;52.150;4.508;2023-07-16T11:49:53;100933.81;;;24.13;37.10
72465;BME280;60471;52.150;4.508;2023-07-16T11:52:23;101106.44;;;24.83;35.09
72465;BME280;60471;52.150;4.508;2023-07-16T11:54:52;101051.34;;;24.42;34.39
72465;BME280;60471;52.150;4.508;2023-07-16T11:57:18;101020.44;;;24.96;33.43
72465;BME280;60471;52.150;4.508;2023-07-16T11:59:45;100977.53;;;25.19;33.79
72465;BME280;60471;52.150;4.508;2023-07-16T12:02:11;100998.97;;;24.78;35.73
72465;BME280;60471;52.150;4.508;2023-07-16T12:04:38;100956.09;;;24.41;37.24
72465;BME280;60471;52.150;4.508;2023-07-16T12:07:06;101005.34;;;24.43;36.97
72465;BME280;60471;52.150;4.508;2023-07-16T12:09:33;101013.00;;;23.41;38.41
72465;BME280;60471;52.150;4.508;2023-07-16T12:11:59;100999.00;;;23.55;38.69
72465;BME280;60471;52.150;4.508;2023-07-16T12:14:26;101015.13;;;23.83;38.59
72465;BME280;60471;52.150;4.508;2023-07-16T12:16:52;101049.97;;;24.90;36.49
72465;BME280;60471;52.150;4.508;2023-07-16T12:19:18;101050.88;;;24.72;36.77
72465;BME280;60471;52.150;4.508;2023-07-16T12:21:44;100986.47;;;24.77;37.19
72465;BME280;60471;52.150;4.508;2023-07-16T12:24:11;101029.97;;;24.22;37.68
72465;BME280;60471;52.150;4.508;2023-07-16T12:26:37;101000.06;;;24.34;37.82
72465;BME280;60471;52.150;4.508;2023-07-16T12:29:03;101122.97;;;24.36;38.61
72465;BME280;60471;52.150;4.508;2023-07-16T12:31:30;101034.44;;;24.57;38.11
72465;BME280;60471;52.150;4.508;2023-07-16T12:34:00;100999.88;;;25.46;36.85
72465;BME280;60471;52.150;4.508;2023-07-16T12:36:52;101024.19;;;25.46;36.20
72465;BME280;60471;52.150;4.508;2023-07-16T12:39:22;101018.69;;;24.45;38.03
72465;BME280;60471;52.150;4.508;2023-07-16T12:41:49;101057.72;;;24.93;37.00
72465;BME280;60471;52.150;4.508;2023-07-16T12:44:15;101056.50;;;25.13;36.77
72465;BME280;60471;52.150;4.508;2023-07-16T12:46:41;101010.22;;;25.66;36.15
72465;BME280;60471;52.150;4.508;2023-07-16T12:49:07;101016.16;;;26.51;34.32
72465;BME280;60471;52.150;4.508;2023-07-16T12:51:33;101177.09;;;26.07;34.84
72465;BME280;60471;52.150;4.508;2023-07-16T12:53:59;100983.31;;;25.49;36.11
72465;BME280;60471;52.150;4.508;2023-07-16T12:56:26;101133.94;;;25.81;32.94
72465;BME280;60471;52.150;4.508;2023-07-16T12:58:52;101009.06;;;25.10;35.52
72465;BME280;60471;52.150;4.508;2023-07-16T13:01:18;101005.31;;;25.54;33.51
72465;BME280;60471;52.150;4.508;2023-07-16T13:03:44;101027.25;;;26.73;31.33
72465;BME280;60471;52.150;4.508;2023-07-16T13:06:10;101109.31;;;26.00;33.98
72465;BME280;60471;52.150;4.508;2023-07-16T13:08:36;101033.47;;;25.43;35.93